x

Isle Of Shoals, Nh (iosn3) Weather Station

2:00 - Mon 20th Feb 2017 All times are EST. -5 hours from GMT.

  • Wind
    7mph
  • Aire Temp 38°f
  • Sea Pressure 1020.6mb
  • Isle Of Shoals, Nh
  • Isle Of Shoals, Nh

More Historic Weather Station data

Upgrade to MSW Pro to gain access to the past 30 days of data for over 8000 Wavebouys and Weather Stations around the globe.

Join Pro

Comparision Forecast

View Surf forecast
   
lun 02/20 2:00 7
mph
1020.6mb 38f
1:00 10
mph
1020.5mb 37f
12:00 14 15 mph 1020.7mb 37f
11:00 15 16 mph 1020.6mb 36f
10:00 17 18 mph 1020.5mb 36f
9:00 18 20 mph 1020.2mb 36f
8:00 15 17 mph 1019.5mb 37f
7:00 14 16 mph 1018.1mb 37f
6:00 14 15 mph 1016.6mb 38f
5:00 11 15 mph 1015.6mb 39f
4:00 13 14 mph 1014.4mb 41f
3:00 20 22 mph 1013.3mb 42f
2:00 14 15 mph 1013mb 43f
1:00 17 20 mph 1012.1mb 46f
12:00 17
mph
1011.7mb 47f
dom 02/19 11:00 11 13 mph 1011.3mb 46f
10:00 17 20 mph 1011.1mb 48f
9:00 18 20 mph 1010.4mb 49f
8:00 14
mph
1009.5mb 51f
7:00 15 16 mph 1008.8mb 51f
6:00 17
mph
1007.8mb 53f
5:00 17 18 mph 1006.7mb 53f
4:00 21 22 mph 1005.1mb 56f
3:00 16
mph
1004.2mb 55f
2:00 18
mph
1003.5mb 53f
1:00 20
mph
1003.3mb 52f
12:00 22
mph
1003.4mb 50f
11:00 20
mph
1004.1mb 49f
10:00 17
mph
1004.3mb 48f
9:00 18
mph
1004mb 47f
8:00 21
mph
1003.5mb 46f
7:00 23
mph
1002.8mb 52f
6:00 22
mph
1002.2mb 52f
5:00 24 25 mph 1001.4mb 52f
4:00 16
mph
1000.9mb 49f
3:00 10
mph
1000.1mb 50f
2:00 14
mph
999.4mb 51f
1:00 18 20 mph 998.7mb 50f
12:00 22 23 mph 997.8mb 48f
sáb 02/18 11:00 21
mph
997.8mb 47f
10:00 23 24 mph 997.7mb 48f
9:00 29
mph
997.5mb 46f
8:00 28 30 mph 997.9mb 46f
7:00 26 28 mph 998mb 46f
6:00 18 20 mph 999mb 45f
5:00 21 22 mph 999mb 47f
4:00 18 20 mph 999.6mb 47f
3:00 16 17 mph 1000.5mb 44f
2:00 18 20 mph 1001.8mb 43f
1:00 20 22 mph 1002.8mb 40f
12:00 16 18 mph 1003.9mb 40f
11:00 22 23 mph 1005.7mb 37f
10:00 9 11 mph 1006.9mb 34f
9:00 15 16 mph 1009mb 32f
8:00 9 10 mph 1008.5mb 31f
7:00 14 15 mph 1008.2mb 32f
6:00 14 16 mph 1008.4mb 32f
5:00 17 20 mph 1008.6mb 32f
4:00 23 25 mph 1008.2mb 32f
3:00 21 22 mph 1008.4mb 31f
2:00 20 23 mph 1008.4mb 32f
1:00 20 22 mph 1008.1mb 31f
12:00 18 22 mph 1007.8mb 32f
vie 02/17 11:00 16 18 mph 1007.1mb 33f
10:00 21 22 mph 1006.7mb 33f
9:00 20 22 mph 1006.6mb 34f
8:00 25 29 mph 1005.7mb 35f
7:00 28 30 mph 1005.1mb 35f
6:00 28 30 mph 1004.4mb 37f
5:00 25 28 mph 1003.7mb 38f
4:00 29 31 mph 1002.7mb 39f
3:00 22 24 mph 1002.5mb 38f
2:00 24 26 mph 1002.3mb 36f
1:00 21 23 mph 1002.6mb 34f
12:00 26 30 mph 1002.4mb 32f
11:00 28 31 mph 1002.6mb 30f
10:00 32 36 mph 1001.9mb 28f
9:00 32 36 mph 1002.3mb 26f
8:00 30 33 mph 1002mb 25f
7:00 28 31 mph 1001.6mb 25f
6:00 26 30 mph 1001.2mb 26f
5:00 22 25 mph 1001mb 26f
4:00 22 28 mph 1000.5mb 26f
3:00 25 29 mph 1000.3mb 26f
2:00 29 31 mph 999.9mb 26f
1:00 28 32 mph 999.7mb 27f
12:00 26 29 mph 999.9mb 27f
jue 02/16 11:00 28 31 mph 999.5mb 28f
10:00 25 28 mph 999.4mb 28f
9:00 26 30 mph 999.1mb 29f